Time;durP1;ratioP1;P1;durP2;ratioP2;P2;SDS_P1;SDS_P2;PMS_P1;PMS_P2;Temp;Humidity;BMP_temperature;BMP_pressure;BME280_temperature;BME280_humidity;BME280_pressure;Samples;Min_cycle;Max_cycle;Signal;HPM_P1;HPM_P2
2024/03/15 00:00:13;;;;;;;26.30;10.40;;;;;;;7.14;48.68;100837.26;105895;1256;60507;-62
2024/03/15 00:02:40;;;;;;;22.90;11.80;;;;;;;7.12;48.68;100834.77;105543;1251;63812;-64
2024/03/15 00:05:09;;;;;;;22.00;11.70;;;;;;;7.09;48.80;100833.55;106573;1251;60420;-65
2024/03/15 00:07:36;;;;;;;18.50;9.80;;;;;;;7.05;48.97;100832.01;106202;1254;63754;-59
2024/03/15 00:10:04;;;;;;;24.00;9.50;;;;;;;7.01;49.14;100832.42;106295;1251;60892;-61
2024/03/15 00:12:33;;;;;;;21.90;10.60;;;;;;;6.99;49.33;100833.98;106719;1252;60447;-62
2024/03/15 00:15:00;;;;;;;25.60;10.40;;;;;;;6.98;49.56;100832.46;105920;1251;64991;-61
2024/03/15 00:17:27;;;;;;;25.10;9.40;;;;;;;6.95;49.59;100827.55;106406;1251;61959;-64
2024/03/15 00:19:54;;;;;;;18.40;9.50;;;;;;;6.93;49.69;100830.83;106755;1251;63802;-64
2024/03/15 00:22:23;;;;;;;18.20;8.90;;;;;;;6.91;49.49;100828.67;106315;1251;60450;-64
2024/03/15 00:24:50;;;;;;;30.70;21.30;;;;;;;6.91;49.48;100833.00;106335;1251;62950;-64
2024/03/15 00:27:17;;;;;;;21.50;8.80;;;;;;;6.93;49.39;100830.86;106278;1251;64957;-57
2024/03/15 00:29:44;;;;;;;19.50;10.90;;;;;;;6.92;49.55;100827.58;105595;1251;62317;-61
2024/03/15 00:32:11;;;;;;;19.60;9.60;;;;;;;6.93;49.64;100832.06;106430;1251;63719;-62
2024/03/15 00:34:38;;;;;;;22.60;10.30;;;;;;;6.94;49.60;100830.05;106350;1251;60434;-61
2024/03/15 00:37:05;;;;;;;19.00;10.00;;;;;;;6.96;49.58;100831.52;106050;1254;60339;-59
2024/03/15 00:39:32;;;;;;;19.30;9.00;;;;;;;6.97;49.69;100834.25;106711;1254;63793;-61
2024/03/15 00:41:59;;;;;;;34.70;21.40;;;;;;;6.98;49.99;100831.76;106381;1251;61680;-59
2024/03/15 00:44:26;;;;;;;17.80;7.80;;;;;;;6.99;50.10;100831.34;106346;1252;63841;-60
2024/03/15 00:46:52;;;;;;;18.60;6.30;;;;;;;7.05;50.03;100834.66;106274;1251;60701;-65
2024/03/15 00:49:19;;;;;;;15.30;7.00;;;;;;;7.13;49.89;100833.13;106371;1251;60549;-64
2024/03/15 00:51:49;;;;;;;12.50;6.10;;;;;;;7.22;49.54;100831.21;106346;1251;65223;-63
2024/03/15 00:54:16;;;;;;;23.10;8.20;;;;;;;7.31;49.50;100832.27;106348;1256;61373;-60
2024/03/15 00:56:43;;;;;;;18.90;8.80;;;;;;;7.39;49.67;100833.19;105456;1254;62823;-60
2024/03/15 00:59:10;;;;;;;18.80;8.90;;;;;;;7.43;49.77;100831.52;106480;1256;60441;-59
2024/03/15 01:01:37;;;;;;;34.80;20.80;;;;;;;7.44;49.84;100831.63;105628;1257;60376;-59
2024/03/15 01:04:04;;;;;;;23.70;10.80;;;;;;;7.45;49.76;100829.88;105963;1254;65174;-59
2024/03/15 01:06:31;;;;;;;23.30;9.60;;;;;;;7.43;49.69;100827.53;105465;1250;60525;-59
2024/03/15 01:08:58;;;;;;;19.70;11.00;;;;;;;7.41;49.60;100825.75;105475;1251;63989;-59
2024/03/15 01:11:25;;;;;;;23.70;9.80;;;;;;;7.37;49.57;100827.53;105608;1251;60413;-59
2024/03/15 01:13:57;;;;;;;17.80;8.20;;;;;;;7.35;49.81;100832.25;106216;1251;60482;-59
2024/03/15 01:16:27;;;;;;;21.30;11.10;;;;;;;7.31;49.90;100827.77;106307;1253;65261;-62
2024/03/15 01:18:54;;;;;;;17.30;8.70;;;;;;;7.27;50.02;100829.00;106127;1252;61694;-58
2024/03/15 01:21:23;;;;;;;17.10;9.50;;;;;;;7.24;50.35;100828.80;105567;1254;63691;-59
2024/03/15 01:23:50;;;;;;;18.00;8.80;;;;;;;7.21;50.42;100829.37;105487;1251;61321;-60
2024/03/15 01:26:17;;;;;;;16.20;7.90;;;;;;;7.16;50.44;100828.41;105625;1251;61364;-60
2024/03/15 01:28:43;;;;;;;19.60;9.90;;;;;;;7.12;50.51;100830.20;106179;1254;65764;-64
2024/03/15 01:31:11;;;;;;;28.40;10.80;;;;;;;7.10;50.54;100827.42;105593;1251;61524;-58
2024/03/15 01:33:38;;;;;;;18.50;9.10;;;;;;;7.06;50.75;100827.95;105578;1251;64008;-60
2024/03/15 01:36:05;;;;;;;22.20;10.30;;;;;;;7.02;50.86;100828.70;105780;1251;61320;-60
2024/03/15 01:38:32;;;;;;;20.00;10.50;;;;;;;7.00;51.17;100827.79;107576;1250;61343;-58
2024/03/15 01:40:58;;;;;;;19.20;10.00;;;;;;;6.98;51.33;100830.02;105508;1251;64621;-60
2024/03/15 01:43:25;;;;;;;31.20;22.40;;;;;;;6.95;51.45;100834.88;105471;1251;62289;-59
2024/03/15 01:45:52;;;;;;;19.60;9.40;;;;;;;6.94;51.44;100838.13;105578;1254;63837;-58
2024/03/15 01:48:20;;;;;;;17.90;9.60;;;;;;;6.98;51.38;100839.43;105500;1251;61375;-60
2024/03/15 01:50:47;;;;;;;16.30;7.20;;;;;;;7.06;51.40;100841.25;105723;1251;61364;-58
2024/03/15 01:53:16;;;;;;;25.50;10.60;;;;;;;7.13;51.45;100841.36;105832;1254;65977;-60
2024/03/15 01:55:43;;;;;;;19.50;9.70;;;;;;;7.20;51.52;100840.94;105710;1254;62101;-59
2024/03/15 01:58:10;;;;;;;18.70;8.80;;;;;;;7.24;51.52;100841.38;105725;1254;64442;-60
2024/03/15 02:00:40;;;;;;;20.20;9.00;;;;;;;7.26;51.57;100843.89;106047;1254;61213;-59
2024/03/15 02:03:08;;;;;;;17.80;9.80;;;;;;;7.27;51.70;100844.54;107442;1251;61384;-59
2024/03/15 02:05:35;;;;;;;17.90;10.50;;;;;;;7.28;51.52;100844.66;105862;1251;65688;-58
2024/03/15 02:08:07;;;;;;;17.20;8.80;;;;;;;7.30;51.67;100847.17;105461;1255;61333;-59
2024/03/15 02:10:34;;;;;;;17.50;8.60;;;;;;;7.31;51.77;100846.23;109532;1250;64065;-59
2024/03/15 02:13:01;;;;;;;17.70;9.90;;;;;;;7.31;51.99;100848.84;108379;1254;61362;-58
2024/03/15 02:15:28;;;;;;;18.10;9.60;;;;;;;7.29;51.96;100849.86;106760;1251;61227;-60
2024/03/15 02:17:55;;;;;;;29.90;22.00;;;;;;;7.27;52.04;100856.27;109373;1251;65984;-60
2024/03/15 02:20:22;;;;;;;18.10;8.00;;;;;;;7.24;52.11;100854.99;109453;1251;61661;-60
2024/03/15 02:22:49;;;;;;;19.80;9.80;;;;;;;7.22;52.38;100856.67;108683;1251;62602;-60
2024/03/15 02:25:16;;;;;;;18.40;10.50;;;;;;;7.19;52.53;100862.79;106330;1251;61330;-63
2024/03/15 02:27:43;;;;;;;17.70;9.10;;;;;;;7.18;52.67;100864.60;106314;1251;61333;-59
2024/03/15 02:30:11;;;;;;;30.20;21.70;;;;;;;7.18;52.80;100866.71;106515;1254;66117;-58
2024/03/15 02:32:38;;;;;;;19.10;10.00;;;;;;;7.18;52.85;100866.84;106522;1254;61658;-61
2024/03/15 02:35:09;;;;;;;19.10;9.60;;;;;;;7.24;52.97;100867.07;105786;1254;63934;-61
2024/03/15 02:37:52;;;;;;;16.60;6.60;;;;;;;7.30;53.05;100866.00;106040;1254;61135;-60
2024/03/15 02:40:19;;;;;;;17.20;8.60;;;;;;;7.35;53.15;100867.30;105545;1254;61256;-60
2024/03/15 02:42:46;;;;;;;17.20;8.40;;;;;;;7.39;53.22;100868.42;105741;1254;65784;-61
2024/03/15 02:45:14;;;;;;;23.80;10.80;;;;;;;7.41;53.18;100869.02;106393;1251;61864;-61
2024/03/15 02:47:41;;;;;;;25.90;10.30;;;;;;;7.43;53.43;100869.79;105775;1251;63897;-60
2024/03/15 02:50:09;;;;;;;17.70;7.90;;;;;;;7.44;53.45;100869.87;105746;1251;61339;-60
2024/03/15 02:52:36;;;;;;;20.60;9.20;;;;;;;7.42;53.44;100869.10;105846;1251;61266;-60
2024/03/15 02:55:04;;;;;;;20.10;9.30;;;;;;;7.40;53.47;100869.80;105884;1256;66096;-60
2024/03/15 02:57:31;;;;;;;16.20;8.60;;;;;;;7.34;53.50;100867.71;106099;1251;61405;-59
2024/03/15 02:59:58;;;;;;;19.10;10.00;;;;;;;7.25;53.69;100867.86;106038;1251;64563;-60
2024/03/15 03:02:25;;;;;;;19.50;8.90;;;;;;;7.18;53.88;100867.04;107845;1254;61241;-60
2024/03/15 03:04:52;;;;;;;17.20;8.40;;;;;;;7.14;54.16;100866.96;106301;1251;61364;-61
2024/03/15 03:07:19;;;;;;;16.00;8.70;;;;;;;7.09;54.30;100866.70;105979;1250;64511;-62
2024/03/15 03:09:46;;;;;;;20.70;9.30;;;;;;;7.05;54.47;100870.75;106322;1251;62139;-63
2024/03/15 03:12:14;;;;;;;20.00;11.10;;;;;;;7.03;54.59;100869.33;106304;1256;64043;-61
2024/03/15 03:14:41;;;;;;;18.60;9.10;;;;;;;7.00;54.80;100868.97;106356;1251;61269;-61
2024/03/15 03:17:07;;;;;;;17.20;9.10;;;;;;;6.98;54.97;100874.67;106299;1251;61250;-62
2024/03/15 03:19:34;;;;;;;16.80;8.70;;;;;;;6.99;55.05;100871.09;106351;1251;74349;-61
2024/03/15 03:22:01;;;;;;;26.90;19.10;;;;;;;7.04;55.12;100869.40;106328;1254;61791;-61
2024/03/15 03:24:28;;;;;;;15.70;7.50;;;;;;;7.11;55.09;100875.16;106231;1250;64093;-61
2024/03/15 03:26:54;;;;;;;16.50;7.90;;;;;;;7.18;55.21;100875.60;106356;1254;61121;-62
2024/03/15 03:29:22;;;;;;;16.40;9.00;;;;;;;7.28;55.10;100875.17;106301;1251;61282;-59
2024/03/15 03:31:49;;;;;;;19.40;9.20;;;;;;;7.37;55.09;100877.14;106202;1257;66128;-61
2024/03/15 03:34:16;;;;;;;16.80;8.40;;;;;;;7.40;55.04;100878.51;106366;1254;61226;-58
2024/03/15 03:36:43;;;;;;;17.60;9.20;;;;;;;7.43;55.03;100879.23;105585;1254;64114;-58
2024/03/15 03:39:10;;;;;;;18.10;9.60;;;;;;;7.42;54.96;100884.52;105710;1250;61328;-59
2024/03/15 03:41:37;;;;;;;37.50;21.10;;;;;;;7.41;54.99;100883.52;105797;1251;61221;-59
2024/03/15 03:44:04;;;;;;;19.70;10.60;;;;;;;7.38;55.05;100886.84;105449;1254;66597;-60
2024/03/15 03:46:31;;;;;;;17.60;9.30;;;;;;;7.35;55.05;100888.23;107240;1251;61272;-60
2024/03/15 03:48:58;;;;;;;16.00;9.40;;;;;;;7.33;55.24;100889.60;106019;1251;62495;-59
2024/03/15 03:51:25;;;;;;;17.90;9.40;;;;;;;7.29;55.36;100891.53;105590;1254;61225;-59
2024/03/15 03:53:52;;;;;;;17.70;9.70;;;;;;;7.25;55.41;100891.39;106194;1251;61224;-60
2024/03/15 03:56:20;;;;;;;17.60;9.00;;;;;;;7.22;55.63;100894.90;106183;1251;65993;-59
2024/03/15 03:58:46;;;;;;;18.20;10.00;;;;;;;7.18;55.75;100892.34;106292;1251;61474;-60
2024/03/15 04:01:14;;;;;;;17.00;8.20;;;;;;;7.20;55.86;100892.92;105559;1254;71163;-59
2024/03/15 04:03:48;;;;;;;13.50;7.30;;;;;;;7.25;55.98;100894.05;105569;1254;61365;-59
2024/03/15 04:06:15;;;;;;;22.70;11.00;;;;;;;7.31;56.16;100891.79;105535;1251;61323;-60
2024/03/15 04:08:42;;;;;;;18.20;10.90;;;;;;;7.39;56.11;100890.77;105718;1250;66507;-61
2024/03/15 04:11:09;;;;;;;15.20;7.40;;;;;;;7.48;56.13;100889.23;106063;1251;62935;-61
2024/03/15 04:13:36;;;;;;;26.10;20.00;;;;;;;7.52;56.03;100890.74;105781;1254;63878;-60
2024/03/15 04:16:04;;;;;;;17.70;7.40;;;;;;;7.51;55.94;100893.24;105869;1251;61255;-60
2024/03/15 04:18:32;;;;;;;15.80;9.90;;;;;;;7.47;55.84;100890.88;105876;1251;61272;-60
2024/03/15 04:20:59;;;;;;;17.20;8.40;;;;;;;7.41;55.91;100892.09;106740;1256;66209;-63
2024/03/15 04:23:27;;;;;;;21.20;9.30;;;;;;;7.35;55.98;100891.02;106431;1254;61132;-58
2024/03/15 04:25:54;;;;;;;20.30;9.80;;;;;;;7.30;56.06;100890.30;105572;1254;62498;-59
2024/03/15 04:28:21;;;;;;;18.00;10.00;;;;;;;7.24;56.24;100890.63;106082;1251;61262;-59
2024/03/15 04:30:48;;;;;;;19.10;10.50;;;;;;;7.19;56.43;100892.45;106229;1251;61253;-60
2024/03/15 04:33:16;;;;;;;24.10;12.00;;;;;;;7.16;56.62;100896.14;106045;1251;65969;-61
2024/03/15 04:35:44;;;;;;;29.50;22.10;;;;;;;7.14;56.76;100897.10;106285;1257;60212;-60
2024/03/15 04:38:10;;;;;;;17.00;8.80;;;;;;;7.13;56.87;100899.94;105529;1251;64065;-64
2024/03/15 04:40:37;;;;;;;20.80;10.10;;;;;;;7.16;56.88;100898.55;105494;1250;61316;-60
2024/03/15 04:43:04;;;;;;;17.60;9.50;;;;;;;7.20;56.88;100899.39;105949;1254;61224;-61
2024/03/15 04:45:31;;;;;;;16.30;7.30;;;;;;;7.26;57.03;100903.73;105411;1251;64553;-61
2024/03/15 04:48:00;;;;;;;16.10;6.80;;;;;;;7.35;56.90;100907.77;106280;1251;62051;-60
2024/03/15 04:50:27;;;;;;;13.50;6.90;;;;;;;7.44;57.02;100904.12;106428;1252;62848;-61
2024/03/15 04:52:54;;;;;;;13.90;8.70;;;;;;;7.49;56.94;100904.02;106509;1256;61307;-60
2024/03/15 04:55:21;;;;;;;17.60;10.80;;;;;;;7.48;56.88;100901.77;105602;1250;61135;-61
2024/03/15 04:57:49;;;;;;;29.60;21.40;;;;;;;7.48;56.94;100906.34;106548;1251;66173;-60
2024/03/15 05:00:18;;;;;;;19.10;10.10;;;;;;;7.48;56.90;100912.42;106637;1254;61331;-62
2024/03/15 05:02:49;;;;;;;15.30;8.30;;;;;;;7.47;56.79;100915.28;106516;1254;62547;-61
2024/03/15 05:05:16;;;;;;;16.40;10.80;;;;;;;7.46;56.88;100921.64;106505;1254;61221;-60
2024/03/15 05:07:42;;;;;;;19.30;10.00;;;;;;;7.45;56.87;100921.48;105753;1251;61387;-60
2024/03/15 05:10:13;;;;;;;19.80;10.50;;;;;;;7.45;56.87;100926.40;106465;1254;65772;-64
2024/03/15 05:12:41;;;;;;;28.80;22.10;;;;;;;7.43;56.88;100934.73;105626;1251;61907;-58
2024/03/15 05:15:12;;;;;;;17.40;7.40;;;;;;;7.42;57.03;100937.08;105547;1251;64462;-60
2024/03/15 05:17:44;;;;;;;15.40;6.80;;;;;;;7.44;57.02;100937.28;107333;1251;61443;-67
2024/03/15 05:20:14;;;;;;;17.70;8.50;;;;;;;7.51;56.91;100938.78;105728;1251;61269;-70
2024/03/15 05:22:45;;;;;;;18.50;7.80;;;;;;;7.57;56.86;100940.86;105698;1257;65966;-63
2024/03/15 05:25:18;;;;;;;17.10;8.30;;;;;;;7.65;56.72;100942.02;106035;1251;61529;-65
2024/03/15 05:27:45;;;;;;;30.30;22.30;;;;;;;7.70;56.62;100942.27;105633;1255;64476;-64
2024/03/15 05:30:19;;;;;;;20.40;9.10;;;;;;;7.72;56.61;100941.75;105482;1254;61255;-65
2024/03/15 05:32:52;;;;;;;19.20;9.50;;;;;;;7.73;56.41;100944.48;105613;1251;61340;-69
2024/03/15 05:35:20;;;;;;;24.70;10.30;;;;;;;7.71;56.38;100946.86;106016;1256;64518;-62
2024/03/15 05:37:47;;;;;;;17.20;8.90;;;;;;;7.70;56.41;100947.14;109242;1250;61460;-63
2024/03/15 05:40:14;;;;;;;17.60;9.60;;;;;;;7.67;56.29;100954.13;108616;1251;64544;-61
2024/03/15 05:42:42;;;;;;;21.70;9.60;;;;;;;7.63;56.26;100955.05;105179;1251;61396;-62
2024/03/15 05:45:09;;;;;;;22.20;9.50;;;;;;;7.59;56.32;100956.13;106486;1251;61268;-61
2024/03/15 05:47:39;;;;;;;29.10;22.40;;;;;;;7.56;56.45;100953.52;105681;1255;65889;-60
2024/03/15 05:50:17;;;;;;;19.60;10.60;;;;;;;7.55;56.33;100951.30;106063;1250;63172;-64
2024/03/15 05:52:44;;;;;;;29.60;20.50;;;;;;;7.59;56.41;100949.84;105670;1251;73113;-63
2024/03/15 05:55:13;;;;;;;19.90;9.50;;;;;;;7.66;56.29;100950.29;107031;1250;61259;-56
2024/03/15 05:57:41;;;;;;;18.80;9.80;;;;;;;7.76;56.30;100954.98;105059;1250;61498;-61
2024/03/15 06:00:13;;;;;;;23.10;9.00;;;;;;;7.82;56.24;100957.39;106563;1257;64447;-63
2024/03/15 06:02:51;;;;;;;20.20;9.70;;;;;;;7.88;56.14;100954.07;106392;1254;61997;-59
2024/03/15 06:05:23;;;;;;;18.20;9.40;;;;;;;7.91;55.92;100946.73;105892;1251;63862;-66
2024/03/15 06:07:50;;;;;;;29.80;23.00;;;;;;;7.93;55.91;100945.06;106383;1251;61307;-61
2024/03/15 06:10:20;;;;;;;21.00;11.00;;;;;;;7.91;55.89;100947.30;105653;1250;61336;-61
2024/03/15 06:12:47;;;;;;;20.30;10.80;;;;;;;7.87;55.93;100945.22;105649;1254;66921;-66
2024/03/15 06:15:14;;;;;;;22.70;10.10;;;;;;;7.82;55.87;100943.27;105569;1251;62382;-63
2024/03/15 06:17:41;;;;;;;30.10;22.40;;;;;;;7.73;55.98;100942.76;105183;1251;64636;-64
2024/03/15 06:20:09;;;;;;;24.90;10.60;;;;;;;7.68;56.13;100941.30;109433;1250;59264;-62
2024/03/15 06:22:38;;;;;;;22.50;9.40;;;;;;;7.72;56.20;100939.16;109368;1250;59246;-65
2024/03/15 06:25:05;;;;;;;22.50;10.80;;;;;;;7.78;56.19;100940.54;109478;1251;65851;-65
2024/03/15 06:27:32;;;;;;;17.70;10.40;;;;;;;7.84;56.14;100948.18;108515;1251;61562;-61
2024/03/15 06:30:03;;;;;;;29.70;22.90;;;;;;;7.91;56.29;100952.33;105948;1251;64080;-65
2024/03/15 06:32:36;;;;;;;19.90;11.10;;;;;;;7.94;56.27;100951.61;106206;1256;61379;-59
2024/03/15 06:35:19;;;;;;;18.30;10.50;;;;;;;7.95;56.13;100952.45;107571;1251;60023;-62
2024/03/15 06:37:53;;;;;;;18.00;8.80;;;;;;;7.96;56.16;100953.95;107280;1250;66164;-58
2024/03/15 06:40:42;;;;;;;33.70;23.30;;;;;;;7.95;56.11;100954.70;106310;1251;63032;-60
2024/03/15 06:43:25;;;;;;;18.40;9.20;;;;;;;7.95;56.03;100955.77;105797;1252;64136;-59
2024/03/15 06:46:20;;;;;;;26.60;11.00;;;;;;;7.96;56.01;100959.02;105914;1254;61256;-63
2024/03/15 06:49:12;;;;;;;23.30;11.30;;;;;;;7.97;56.00;100960.88;105772;1253;60334;-58
2024/03/15 06:54:32;;;;;;;17.00;8.40;;;;;;;8.00;56.01;100967.00;105566;1257;63183;-63
2024/03/15 06:57:04;;;;;;;17.40;8.30;;;;;;;8.08;56.00;100966.73;105810;1251;66473;-60
2024/03/15 06:59:31;;;;;;;29.40;21.90;;;;;;;8.16;55.96;100964.84;105444;1254;61372;-57
2024/03/15 07:01:58;;;;;;;18.20;10.00;;;;;;;8.28;55.78;100967.79;106063;1251;61282;-57
2024/03/15 07:04:26;;;;;;;18.70;9.50;;;;;;;8.39;55.85;100968.69;105892;1251;74788;-54
2024/03/15 07:06:53;;;;;;;22.50;11.40;;;;;;;8.49;55.84;100969.98;106110;1251;61533;-61
2024/03/15 07:09:23;;;;;;;32.80;23.80;;;;;;;8.57;55.48;100969.70;105783;1251;65251;-62
2024/03/15 07:11:52;;;;;;;24.90;12.40;;;;;;;8.59;55.16;100969.06;105998;1254;61620;-60
2024/03/15 07:14:23;;;;;;;35.20;24.40;;;;;;;8.60;55.17;100970.56;106472;1253;61371;-60
2024/03/15 07:16:51;;;;;;;19.80;9.70;;;;;;;8.61;55.26;100968.73;105938;1256;65329;-62
2024/03/15 07:19:20;;;;;;;17.90;8.70;;;;;;;8.59;55.08;100968.53;105457;1251;62578;-62
2024/03/15 07:21:49;;;;;;;22.80;9.70;;;;;;;8.54;55.14;100965.84;105678;1251;65223;-62
2024/03/15 07:24:19;;;;;;;31.80;24.10;;;;;;;8.52;55.37;100963.87;105823;1251;61291;-63
2024/03/15 07:26:47;;;;;;;24.30;11.50;;;;;;;8.54;55.34;100966.38;107040;1251;61201;-63
2024/03/15 07:29:19;;;;;;;22.60;10.60;;;;;;;8.63;55.09;100968.45;107253;1255;66692;-64
2024/03/15 07:31:49;;;;;;;16.40;9.70;;;;;;;8.75;55.04;100972.21;107230;1251;62675;-66
2024/03/15 07:34:19;;;;;;;29.90;22.70;;;;;;;8.90;54.98;100973.36;106720;1251;63910;-64
2024/03/15 07:36:48;;;;;;;19.50;10.50;;;;;;;9.05;54.88;100973.51;106527;1256;61221;-64
2024/03/15 07:39:16;;;;;;;34.40;23.60;;;;;;;9.15;54.62;100972.50;105538;1256;61291;-65
2024/03/15 07:41:49;;;;;;;21.10;9.70;;;;;;;9.21;54.43;100971.41;105565;1251;65393;-64
2024/03/15 07:44:19;;;;;;;33.40;24.30;;;;;;;9.24;54.26;100967.01;106288;1253;63031;-65
2024/03/15 07:46:46;;;;;;;20.70;12.30;;;;;;;9.25;53.93;100968.19;106216;1254;73682;-65
2024/03/15 07:49:14;;;;;;;19.40;9.40;;;;;;;9.23;53.82;100966.56;105738;1251;61448;-66
2024/03/15 07:51:42;;;;;;;33.40;24.40;;;;;;;9.18;53.76;100964.25;106482;1251;61156;-66
2024/03/15 07:54:10;;;;;;;19.70;10.10;;;;;;;9.14;53.73;100962.45;106149;1252;67252;-65
2024/03/15 07:56:39;;;;;;;23.90;12.50;;;;;;;9.07;53.86;100963.35;105532;1256;62724;-68
2024/03/15 07:59:07;;;;;;;39.10;26.70;;;;;;;9.07;54.10;100964.93;105713;1251;64001;-65
2024/03/15 08:01:34;;;;;;;23.10;11.60;;;;;;;9.12;54.07;100965.34;105682;1251;61276;-67
2024/03/15 08:04:01;;;;;;;38.60;26.10;;;;;;;9.15;54.08;100964.45;105817;1254;61214;-66
2024/03/15 08:06:29;;;;;;;25.20;11.60;;;;;;;9.19;54.03;100961.41;106178;1251;66018;-70
2024/03/15 08:08:56;;;;;;;22.70;11.40;;;;;;;9.30;53.94;100962.64;107134;1256;61666;-67
2024/03/15 08:11:23;;;;;;;19.30;9.50;;;;;;;9.43;53.70;100962.45;107564;1256;65609;-64
2024/03/15 08:13:50;;;;;;;34.10;25.30;;;;;;;9.53;53.22;100957.77;107098;1254;61317;-68
2024/03/15 08:16:18;;;;;;;24.50;12.50;;;;;;;9.58;53.27;100962.49;105742;1251;61174;-59
2024/03/15 08:18:49;;;;;;;35.60;26.00;;;;;;;9.65;53.28;100958.38;106668;1251;66115;-61
2024/03/15 08:21:17;;;;;;;34.00;25.70;;;;;;;9.74;53.11;100955.33;106600;1256;61791;-68
2024/03/15 08:23:44;;;;;;;22.90;11.50;;;;;;;9.79;52.98;100954.07;105294;1256;71793;-59
2024/03/15 08:26:14;;;;;;;39.30;28.20;;;;;;;9.83;52.61;100954.13;105321;1252;61247;-61
2024/03/15 08:28:41;;;;;;;23.50;10.40;;;;;;;9.86;52.53;100954.86;105176;1251;61336;-61
2024/03/15 08:31:08;;;;;;;37.00;27.30;;;;;;;9.86;52.57;100955.55;105405;1253;64632;-60
2024/03/15 08:33:36;;;;;;;25.70;12.00;;;;;;;9.87;52.57;100959.88;105313;1255;71897;-58
2024/03/15 08:36:06;;;;;;;35.60;27.60;;;;;;;9.87;52.43;100959.66;105650;1251;64253;-61
2024/03/15 08:38:34;;;;;;;25.00;12.10;;;;;;;9.89;52.37;100962.95;107446;1253;61241;-64
2024/03/15 08:41:01;;;;;;;32.20;25.80;;;;;;;9.88;52.34;100962.45;105718;1251;61253;-62
2024/03/15 08:43:31;;;;;;;32.50;13.90;;;;;;;9.88;52.43;100960.87;105838;1254;67453;-63
2024/03/15 08:45:58;;;;;;;38.10;28.70;;;;;;;9.88;52.44;100960.17;105808;1251;62707;-63
2024/03/15 08:48:30;;;;;;;33.20;14.10;;;;;;;9.88;52.24;100955.95;105209;1253;64820;-64
2024/03/15 08:50:58;;;;;;;19.30;9.40;;;;;;;9.94;52.11;100951.67;105575;1256;61279;-55
2024/03/15 08:53:27;;;;;;;39.20;27.10;;;;;;;10.04;52.10;100950.99;105048;1254;61256;-66
2024/03/15 08:55:54;;;;;;;28.10;12.20;;;;;;;10.13;51.94;100951.27;106925;1256;66138;-68
2024/03/15 08:58:26;;;;;;;37.40;27.10;;;;;;;10.20;51.74;100953.39;106992;1254;62869;-70
2024/03/15 09:00:55;;;;;;;37.00;28.10;;;;;;;10.26;51.71;100950.02;108064;1251;62859;-69
2024/03/15 09:03:24;;;;;;;22.90;12.20;;;;;;;10.31;51.64;100953.75;107130;1256;60048;-64
2024/03/15 09:05:51;;;;;;;41.10;28.60;;;;;;;10.35;51.46;100952.40;105915;1254;61868;-65
2024/03/15 09:08:20;;;;;;;37.70;27.80;;;;;;;10.38;51.34;100950.98;105291;1251;64847;-68
2024/03/15 09:10:47;;;;;;;21.40;11.50;;;;;;;10.37;51.25;100950.52;105387;1251;62196;-66
2024/03/15 09:13:18;;;;;;;38.40;29.20;;;;;;;10.33;51.37;100951.46;106916;1251;64390;-68
2024/03/15 09:15:45;;;;;;;24.50;11.70;;;;;;;10.32;51.25;100948.77;106725;1254;61387;-67
2024/03/15 09:18:12;;;;;;;39.70;31.00;;;;;;;10.30;51.25;100945.05;105309;1254;61319;-68
2024/03/15 09:20:44;;;;;;;22.20;10.20;;;;;;;10.27;51.31;100947.18;105302;1256;67256;-66
2024/03/15 09:23:12;;;;;;;40.60;29.80;;;;;;;10.24;51.40;100945.92;106460;1251;61180;-68
2024/03/15 09:25:39;;;;;;;21.30;10.90;;;;;;;10.21;51.53;100946.31;106309;1258;64834;-68
2024/03/15 09:31:08;;;;;;;29.80;15.20;;;;;;;9.90;52.70;100949.48;102049;1293;601171;-70
2024/03/15 09:33:57;;;;;;;38.20;27.50;;;;;;;10.27;51.74;100948.02;105466;1266;61680;-68
2024/03/15 09:36:28;;;;;;;37.00;28.10;;;;;;;10.38;51.43;100949.59;105403;1264;60997;-68
2024/03/15 09:38:56;;;;;;;38.60;29.40;;;;;;;10.44;51.46;100947.75;105469;1267;76137;-65
2024/03/15 09:41:25;;;;;;;22.90;12.00;;;;;;;10.51;51.42;100947.28;104245;1267;72438;-69
2024/03/15 09:43:52;;;;;;;40.70;29.50;;;;;;;10.54;51.16;100946.48;105811;1261;184414;-71
2024/03/15 09:46:24;;;;;;;23.80;11.30;;;;;;;10.56;50.88;100948.96;104700;1269;59747;-62
2024/03/15 09:48:52;;;;;;;40.60;30.10;;;;;;;10.57;50.86;100948.90;106080;1267;60036;-63
2024/03/15 09:51:20;;;;;;;41.80;29.50;;;;;;;10.59;50.68;100949.31;104325;1264;64824;-63
2024/03/15 09:53:48;;;;;;;25.50;14.30;;;;;;;10.59;50.56;100947.54;104304;1263;72413;-61
2024/03/15 09:56:18;;;;;;;44.00;30.90;;;;;;;10.55;50.62;100945.20;105220;1261;74855;-62
2024/03/15 09:58:51;;;;;;;29.50;13.60;;;;;;;10.52;50.57;100946.87;105310;1266;61801;-60
2024/03/15 10:01:19;;;;;;;41.10;32.20;;;;;;;10.47;50.64;100943.84;104478;1267;60558;-63
2024/03/15 10:03:50;;;;;;;30.60;15.70;;;;;;;10.40;50.80;100940.86;104427;1267;76033;-63
2024/03/15 10:06:21;;;;;;;44.70;32.30;;;;;;;10.35;50.91;100942.41;106152;1261;63808;-62
2024/03/15 10:08:49;;;;;;;40.70;30.50;;;;;;;10.31;50.99;100946.03;105414;1260;63797;-61
2024/03/15 10:11:16;;;;;;;26.10;15.20;;;;;;;10.27;51.08;100946.11;104508;1263;61418;-61
2024/03/15 10:13:44;;;;;;;48.00;32.20;;;;;;;10.26;51.28;100949.15;104751;1258;60804;-62
2024/03/15 10:16:14;;;;;;;29.90;14.20;;;;;;;10.29;51.33;100950.70;104540;1258;74755;-62
2024/03/15 10:18:42;;;;;;;43.60;32.20;;;;;;;10.32;51.27;100950.67;104672;1258;72618;-63
2024/03/15 10:21:10;;;;;;;25.10;15.00;;;;;;;10.33;51.26;100950.06;105651;1260;74965;-64
2024/03/15 10:23:37;;;;;;;36.10;27.80;;;;;;;10.38;51.15;100948.85;104430;1263;60440;-62
2024/03/15 10:26:06;;;;;;;22.40;12.70;;;;;;;10.47;51.13;100947.02;108352;1258;63039;-64
2024/03/15 10:28:34;;;;;;;41.00;31.50;;;;;;;10.54;51.06;100941.79;105200;1260;76095;-63
2024/03/15 10:31:01;;;;;;;41.50;30.00;;;;;;;10.57;51.05;100944.02;104589;1258;61669;-63
2024/03/15 10:33:30;;;;;;;22.50;12.90;;;;;;;10.59;51.07;100943.15;104566;1261;64102;-64
2024/03/15 10:35:58;;;;;;;40.60;31.20;;;;;;;10.63;51.00;100943.64;106168;1254;60885;-59
2024/03/15 10:38:25;;;;;;;40.30;30.00;;;;;;;10.65;50.96;100939.23;104940;1257;62089;-59
2024/03/15 10:40:53;;;;;;;41.80;31.30;;;;;;;10.68;50.72;100937.26;104813;1260;67142;-61
2024/03/15 10:43:20;;;;;;;25.10;13.50;;;;;;;10.69;50.71;100938.98;104910;1254;70277;-61
2024/03/15 10:45:48;;;;;;;41.20;31.00;;;;;;;10.68;50.63;100941.16;104966;1254;64778;-61
2024/03/15 10:48:21;;;;;;;41.90;31.50;;;;;;;10.66;50.76;100937.96;104848;1254;60653;-61
2024/03/15 10:50:48;;;;;;;41.90;30.70;;;;;;;10.66;50.89;100938.11;104827;1254;60531;-65
2024/03/15 10:53:16;;;;;;;27.30;13.20;;;;;;;10.67;50.82;100936.80;104897;1260;75947;-64
2024/03/15 10:55:44;;;;;;;42.20;31.30;;;;;;;10.66;50.77;100933.38;104908;1254;72560;-63
2024/03/15 10:58:11;;;;;;;21.10;13.10;;;;;;;10.66;50.69;100931.98;104942;1260;62728;-65
2024/03/15 11:00:39;;;;;;;41.80;29.80;;;;;;;10.67;50.81;100932.60;104877;1254;60463;-64
2024/03/15 11:03:13;;;;;;;43.20;31.80;;;;;;;10.67;50.56;100930.16;104861;1260;60366;-63
2024/03/15 11:05:42;;;;;;;29.70;14.70;;;;;;;10.65;50.66;100929.95;109067;1254;65922;-63
2024/03/15 11:08:13;;;;;;;44.10;31.30;;;;;;;10.65;50.80;100929.79;108904;1254;60744;-62
2024/03/15 11:11:12;;;;;;;36.90;28.30;;;;;;;10.68;50.63;100928.20;109035;1254;63914;-63
2024/03/15 11:13:43;;;;;;;39.40;29.10;;;;;;;10.74;50.52;100930.36;109049;1257;58592;-61
2024/03/15 11:16:20;;;;;;;23.00;12.80;;;;;;;10.77;50.59;100931.02;109077;1252;58406;-65
2024/03/15 11:18:48;;;;;;;38.80;29.90;;;;;;;10.80;50.55;100929.95;108474;1254;76105;-62
2024/03/15 11:21:22;;;;;;;43.20;31.30;;;;;;;10.83;50.34;100930.40;105726;1260;63712;-62
2024/03/15 11:23:51;;;;;;;43.30;29.10;;;;;;;10.87;50.38;100925.41;108262;1255;66132;-63